sensor_id;sensor_type;location;lat;lon;timestamp;P1;durP1;ratioP1;P2;durP2;ratioP2
25982;SDS011;13773;48.868;10.730;2023-03-01T00:00:39;26.57;;;17.17;;
25982;SDS011;13773;48.868;10.730;2023-03-01T00:03:05;30.33;;;19.00;;
25982;SDS011;13773;48.868;10.730;2023-03-01T00:05:31;29.57;;;17.63;;
25982;SDS011;13773;48.868;10.730;2023-03-01T00:07:57;27.57;;;17.10;;
25982;SDS011;13773;48.868;10.730;2023-03-01T00:10:23;25.70;;;17.17;;
25982;SDS011;13773;48.868;10.730;2023-03-01T00:12:49;28.23;;;18.43;;
25982;SDS011;13773;48.868;10.730;2023-03-01T00:15:15;24.77;;;16.47;;
25982;SDS011;13773;48.868;10.730;2023-03-01T00:17:40;28.00;;;17.40;;
25982;SDS011;13773;48.868;10.730;2023-03-01T00:20:06;27.23;;;17.50;;
25982;SDS011;13773;48.868;10.730;2023-03-01T00:22:35;25.37;;;17.17;;
25982;SDS011;13773;48.868;10.730;2023-03-01T00:25:01;28.50;;;17.57;;
25982;SDS011;13773;48.868;10.730;2023-03-01T00:27:27;25.60;;;16.47;;
25982;SDS011;13773;48.868;10.730;2023-03-01T00:29:52;26.33;;;16.70;;
25982;SDS011;13773;48.868;10.730;2023-03-01T00:32:18;27.37;;;17.03;;
25982;SDS011;13773;48.868;10.730;2023-03-01T00:34:44;28.27;;;18.87;;
25982;SDS011;13773;48.868;10.730;2023-03-01T00:37:19;25.77;;;17.43;;
25982;SDS011;13773;48.868;10.730;2023-03-01T00:39:46;25.93;;;16.40;;
25982;SDS011;13773;48.868;10.730;2023-03-01T00:42:12;27.73;;;17.37;;
25982;SDS011;13773;48.868;10.730;2023-03-01T00:44:37;26.50;;;16.70;;
25982;SDS011;13773;48.868;10.730;2023-03-01T00:47:03;29.97;;;17.50;;
25982;SDS011;13773;48.868;10.730;2023-03-01T00:49:29;26.47;;;16.47;;
25982;SDS011;13773;48.868;10.730;2023-03-01T00:51:54;25.77;;;16.47;;
25982;SDS011;13773;48.868;10.730;2023-03-01T00:54:20;27.13;;;17.40;;
25982;SDS011;13773;48.868;10.730;2023-03-01T00:56:49;25.67;;;16.83;;
25982;SDS011;13773;48.868;10.730;2023-03-01T00:59:14;26.97;;;16.77;;
25982;SDS011;13773;48.868;10.730;2023-03-01T01:01:40;27.60;;;17.70;;
25982;SDS011;13773;48.868;10.730;2023-03-01T01:04:07;26.83;;;17.10;;
25982;SDS011;13773;48.868;10.730;2023-03-01T01:06:36;26.23;;;17.10;;
25982;SDS011;13773;48.868;10.730;2023-03-01T01:09:04;27.03;;;16.77;;
25982;SDS011;13773;48.868;10.730;2023-03-01T01:11:32;27.60;;;17.17;;
25982;SDS011;13773;48.868;10.730;2023-03-01T01:13:58;27.67;;;17.33;;
25982;SDS011;13773;48.868;10.730;2023-03-01T01:16:25;26.93;;;16.90;;
25982;SDS011;13773;48.868;10.730;2023-03-01T01:18:52;25.90;;;16.67;;
25982;SDS011;13773;48.868;10.730;2023-03-01T01:21:19;27.03;;;17.03;;
25982;SDS011;13773;48.868;10.730;2023-03-01T01:23:46;24.50;;;17.20;;
25982;SDS011;13773;48.868;10.730;2023-03-01T01:26:14;25.73;;;16.93;;
25982;SDS011;13773;48.868;10.730;2023-03-01T01:28:42;28.70;;;16.60;;
25982;SDS011;13773;48.868;10.730;2023-03-01T01:31:07;26.43;;;17.77;;
25982;SDS011;13773;48.868;10.730;2023-03-01T01:33:33;26.63;;;17.43;;
25982;SDS011;13773;48.868;10.730;2023-03-01T01:35:59;28.40;;;17.20;;
25982;SDS011;13773;48.868;10.730;2023-03-01T01:38:25;27.20;;;16.23;;
25982;SDS011;13773;48.868;10.730;2023-03-01T01:40:51;25.07;;;16.37;;
25982;SDS011;13773;48.868;10.730;2023-03-01T01:43:24;26.20;;;17.17;;
25982;SDS011;13773;48.868;10.730;2023-03-01T01:46:02;25.40;;;16.17;;
25982;SDS011;13773;48.868;10.730;2023-03-01T01:48:40;26.20;;;17.20;;
25982;SDS011;13773;48.868;10.730;2023-03-01T01:51:11;26.00;;;17.30;;
25982;SDS011;13773;48.868;10.730;2023-03-01T01:53:39;25.30;;;16.80;;
25982;SDS011;13773;48.868;10.730;2023-03-01T01:56:06;24.17;;;16.93;;
25982;SDS011;13773;48.868;10.730;2023-03-01T01:58:35;27.63;;;17.63;;
25982;SDS011;13773;48.868;10.730;2023-03-01T02:01:02;26.53;;;16.70;;
25982;SDS011;13773;48.868;10.730;2023-03-01T02:03:30;26.73;;;16.47;;
25982;SDS011;13773;48.868;10.730;2023-03-01T02:08:42;27.00;;;17.07;;
25982;SDS011;13773;48.868;10.730;2023-03-01T02:11:10;23.97;;;17.07;;
25982;SDS011;13773;48.868;10.730;2023-03-01T02:13:39;29.37;;;17.70;;
25982;SDS011;13773;48.868;10.730;2023-03-01T02:16:09;27.93;;;18.23;;
25982;SDS011;13773;48.868;10.730;2023-03-01T02:18:38;24.80;;;17.10;;
25982;SDS011;13773;48.868;10.730;2023-03-01T02:23:30;26.13;;;17.43;;
25982;SDS011;13773;48.868;10.730;2023-03-01T02:29:06;26.80;;;16.97;;
25982;SDS011;13773;48.868;10.730;2023-03-01T02:31:32;25.43;;;17.17;;
25982;SDS011;13773;48.868;10.730;2023-03-01T02:34:07;26.67;;;17.87;;
25982;SDS011;13773;48.868;10.730;2023-03-01T02:36:37;25.63;;;17.67;;
25982;SDS011;13773;48.868;10.730;2023-03-01T02:39:12;27.17;;;16.70;;
25982;SDS011;13773;48.868;10.730;2023-03-01T02:41:42;28.17;;;18.30;;
25982;SDS011;13773;48.868;10.730;2023-03-01T02:44:12;25.87;;;17.17;;
25982;SDS011;13773;48.868;10.730;2023-03-01T02:46:43;24.40;;;17.33;;
25982;SDS011;13773;48.868;10.730;2023-03-01T02:49:44;30.00;;;17.97;;
25982;SDS011;13773;48.868;10.730;2023-03-01T02:54:42;26.33;;;16.87;;
25982;SDS011;13773;48.868;10.730;2023-03-01T02:57:10;25.97;;;17.73;;
25982;SDS011;13773;48.868;10.730;2023-03-01T02:59:36;27.50;;;18.37;;
25982;SDS011;13773;48.868;10.730;2023-03-01T03:02:17;24.50;;;15.87;;
25982;SDS011;13773;48.868;10.730;2023-03-01T03:04:46;29.00;;;17.37;;
25982;SDS011;13773;48.868;10.730;2023-03-01T03:07:12;29.13;;;18.10;;
25982;SDS011;13773;48.868;10.730;2023-03-01T03:09:38;25.57;;;16.07;;
25982;SDS011;13773;48.868;10.730;2023-03-01T03:12:04;25.10;;;17.70;;
25982;SDS011;13773;48.868;10.730;2023-03-01T03:14:30;29.37;;;18.00;;
25982;SDS011;13773;48.868;10.730;2023-03-01T03:16:59;28.73;;;17.23;;
25982;SDS011;13773;48.868;10.730;2023-03-01T03:19:25;27.03;;;16.77;;
25982;SDS011;13773;48.868;10.730;2023-03-01T03:21:51;26.03;;;17.60;;
25982;SDS011;13773;48.868;10.730;2023-03-01T03:24:17;28.03;;;18.40;;
25982;SDS011;13773;48.868;10.730;2023-03-01T03:26:43;27.50;;;18.03;;
25982;SDS011;13773;48.868;10.730;2023-03-01T03:29:08;28.57;;;17.57;;
25982;SDS011;13773;48.868;10.730;2023-03-01T03:31:34;26.17;;;17.87;;
25982;SDS011;13773;48.868;10.730;2023-03-01T03:34:00;29.77;;;17.40;;
25982;SDS011;13773;48.868;10.730;2023-03-01T03:36:25;25.83;;;17.03;;
25982;SDS011;13773;48.868;10.730;2023-03-01T03:38:51;26.40;;;17.47;;
25982;SDS011;13773;48.868;10.730;2023-03-01T03:41:17;26.73;;;17.77;;
25982;SDS011;13773;48.868;10.730;2023-03-01T03:43:43;25.10;;;17.07;;
25982;SDS011;13773;48.868;10.730;2023-03-01T03:46:09;27.40;;;17.03;;
25982;SDS011;13773;48.868;10.730;2023-03-01T03:48:40;27.43;;;17.50;;
25982;SDS011;13773;48.868;10.730;2023-03-01T03:51:09;26.43;;;18.07;;
25982;SDS011;13773;48.868;10.730;2023-03-01T03:53:39;28.00;;;17.43;;
25982;SDS011;13773;48.868;10.730;2023-03-01T03:56:05;27.33;;;17.40;;
25982;SDS011;13773;48.868;10.730;2023-03-01T03:58:31;29.70;;;19.30;;
25982;SDS011;13773;48.868;10.730;2023-03-01T04:00:57;30.97;;;18.50;;
25982;SDS011;13773;48.868;10.730;2023-03-01T04:03:24;27.73;;;17.47;;
25982;SDS011;13773;48.868;10.730;2023-03-01T04:05:51;27.33;;;17.60;;
25982;SDS011;13773;48.868;10.730;2023-03-01T04:08:19;28.30;;;17.67;;
25982;SDS011;13773;48.868;10.730;2023-03-01T04:10:48;28.40;;;18.10;;
25982;SDS011;13773;48.868;10.730;2023-03-01T04:13:19;30.23;;;17.90;;
25982;SDS011;13773;48.868;10.730;2023-03-01T04:15:50;27.73;;;17.93;;
25982;SDS011;13773;48.868;10.730;2023-03-01T04:18:16;29.77;;;18.03;;
25982;SDS011;13773;48.868;10.730;2023-03-01T04:20:44;26.60;;;17.87;;
25982;SDS011;13773;48.868;10.730;2023-03-01T04:23:11;28.17;;;17.97;;
25982;SDS011;13773;48.868;10.730;2023-03-01T04:28:23;27.10;;;17.90;;
25982;SDS011;13773;48.868;10.730;2023-03-01T04:30:50;26.53;;;17.67;;
25982;SDS011;13773;48.868;10.730;2023-03-01T04:33:16;27.13;;;17.90;;
25982;SDS011;13773;48.868;10.730;2023-03-01T04:35:43;28.97;;;17.60;;
25982;SDS011;13773;48.868;10.730;2023-03-01T04:38:09;29.87;;;18.00;;
25982;SDS011;13773;48.868;10.730;2023-03-01T04:40:35;29.07;;;17.73;;
25982;SDS011;13773;48.868;10.730;2023-03-01T04:43:01;29.90;;;19.00;;
25982;SDS011;13773;48.868;10.730;2023-03-01T04:45:28;31.03;;;19.67;;
25982;SDS011;13773;48.868;10.730;2023-03-01T04:47:53;31.00;;;18.83;;
25982;SDS011;13773;48.868;10.730;2023-03-01T04:50:20;30.90;;;18.97;;
25982;SDS011;13773;48.868;10.730;2023-03-01T04:52:46;28.20;;;17.77;;
25982;SDS011;13773;48.868;10.730;2023-03-01T04:55:12;32.67;;;19.03;;
25982;SDS011;13773;48.868;10.730;2023-03-01T04:57:39;29.30;;;18.77;;
25982;SDS011;13773;48.868;10.730;2023-03-01T05:00:05;29.30;;;18.07;;
25982;SDS011;13773;48.868;10.730;2023-03-01T05:02:48;29.87;;;18.77;;
25982;SDS011;13773;48.868;10.730;2023-03-01T05:05:19;29.63;;;18.43;;
25982;SDS011;13773;48.868;10.730;2023-03-01T05:08:07;25.87;;;17.27;;
25982;SDS011;13773;48.868;10.730;2023-03-01T05:10:34;31.00;;;18.53;;
25982;SDS011;13773;48.868;10.730;2023-03-01T05:13:02;32.37;;;18.57;;
25982;SDS011;13773;48.868;10.730;2023-03-01T05:15:28;30.53;;;19.30;;
25982;SDS011;13773;48.868;10.730;2023-03-01T05:17:56;34.30;;;20.60;;
25982;SDS011;13773;48.868;10.730;2023-03-01T05:20:24;32.83;;;19.17;;
25982;SDS011;13773;48.868;10.730;2023-03-01T05:22:57;32.83;;;18.83;;
25982;SDS011;13773;48.868;10.730;2023-03-01T05:25:25;32.87;;;19.20;;
25982;SDS011;13773;48.868;10.730;2023-03-01T05:27:51;31.03;;;19.13;;
25982;SDS011;13773;48.868;10.730;2023-03-01T05:30:17;30.53;;;19.53;;
25982;SDS011;13773;48.868;10.730;2023-03-01T05:32:44;31.90;;;20.17;;
25982;SDS011;13773;48.868;10.730;2023-03-01T05:35:12;34.10;;;20.43;;
25982;SDS011;13773;48.868;10.730;2023-03-01T05:37:39;29.17;;;18.37;;
25982;SDS011;13773;48.868;10.730;2023-03-01T05:40:07;32.47;;;19.13;;
25982;SDS011;13773;48.868;10.730;2023-03-01T05:42:40;30.20;;;19.40;;
25982;SDS011;13773;48.868;10.730;2023-03-01T05:45:10;33.37;;;19.47;;
25982;SDS011;13773;48.868;10.730;2023-03-01T05:47:37;33.73;;;19.53;;
25982;SDS011;13773;48.868;10.730;2023-03-01T05:50:13;31.03;;;18.20;;
25982;SDS011;13773;48.868;10.730;2023-03-01T05:52:44;33.23;;;19.30;;
25982;SDS011;13773;48.868;10.730;2023-03-01T05:55:18;30.93;;;18.77;;
25982;SDS011;13773;48.868;10.730;2023-03-01T05:57:46;30.23;;;19.67;;
25982;SDS011;13773;48.868;10.730;2023-03-01T06:00:12;28.90;;;18.77;;
25982;SDS011;13773;48.868;10.730;2023-03-01T06:02:40;33.57;;;19.70;;
25982;SDS011;13773;48.868;10.730;2023-03-01T06:05:06;28.83;;;19.30;;
25982;SDS011;13773;48.868;10.730;2023-03-01T06:07:33;32.03;;;18.70;;
25982;SDS011;13773;48.868;10.730;2023-03-01T06:10:00;31.10;;;19.30;;
25982;SDS011;13773;48.868;10.730;2023-03-01T06:12:26;32.47;;;19.80;;
25982;SDS011;13773;48.868;10.730;2023-03-01T06:14:55;29.27;;;18.57;;
25982;SDS011;13773;48.868;10.730;2023-03-01T06:17:20;29.77;;;18.57;;
25982;SDS011;13773;48.868;10.730;2023-03-01T06:19:46;33.57;;;18.43;;
25982;SDS011;13773;48.868;10.730;2023-03-01T06:22:12;31.37;;;18.07;;
25982;SDS011;13773;48.868;10.730;2023-03-01T06:24:38;33.23;;;19.73;;
25982;SDS011;13773;48.868;10.730;2023-03-01T06:27:03;29.70;;;18.97;;
25982;SDS011;13773;48.868;10.730;2023-03-01T06:29:29;31.77;;;19.57;;
25982;SDS011;13773;48.868;10.730;2023-03-01T06:31:55;35.07;;;20.47;;
25982;SDS011;13773;48.868;10.730;2023-03-01T06:34:21;31.40;;;18.97;;
25982;SDS011;13773;48.868;10.730;2023-03-01T06:36:47;34.93;;;20.43;;
25982;SDS011;13773;48.868;10.730;2023-03-01T06:39:12;34.23;;;18.30;;
25982;SDS011;13773;48.868;10.730;2023-03-01T06:41:38;28.53;;;18.43;;
25982;SDS011;13773;48.868;10.730;2023-03-01T06:44:04;30.97;;;19.40;;
25982;SDS011;13773;48.868;10.730;2023-03-01T06:46:29;30.93;;;19.27;;
25982;SDS011;13773;48.868;10.730;2023-03-01T06:48:55;26.50;;;16.97;;
25982;SDS011;13773;48.868;10.730;2023-03-01T06:51:21;36.17;;;19.43;;
25982;SDS011;13773;48.868;10.730;2023-03-01T06:53:47;31.07;;;18.37;;
25982;SDS011;13773;48.868;10.730;2023-03-01T06:56:12;30.83;;;18.60;;
25982;SDS011;13773;48.868;10.730;2023-03-01T06:58:38;30.57;;;18.80;;
25982;SDS011;13773;48.868;10.730;2023-03-01T07:01:07;32.37;;;19.77;;
25982;SDS011;13773;48.868;10.730;2023-03-01T07:03:34;30.83;;;19.00;;
25982;SDS011;13773;48.868;10.730;2023-03-01T07:05:59;28.03;;;16.90;;
25982;SDS011;13773;48.868;10.730;2023-03-01T07:08:25;34.17;;;18.60;;
25982;SDS011;13773;48.868;10.730;2023-03-01T07:10:57;31.73;;;18.80;;
25982;SDS011;13773;48.868;10.730;2023-03-01T07:13:23;29.37;;;19.37;;
25982;SDS011;13773;48.868;10.730;2023-03-01T07:15:49;29.30;;;18.80;;
25982;SDS011;13773;48.868;10.730;2023-03-01T07:18:15;29.23;;;17.60;;
25982;SDS011;13773;48.868;10.730;2023-03-01T07:20:41;31.00;;;18.77;;
25982;SDS011;13773;48.868;10.730;2023-03-01T07:23:06;33.57;;;19.47;;
25982;SDS011;13773;48.868;10.730;2023-03-01T07:25:32;27.97;;;17.97;;
25982;SDS011;13773;48.868;10.730;2023-03-01T07:27:58;30.63;;;18.53;;
25982;SDS011;13773;48.868;10.730;2023-03-01T07:30:24;30.93;;;18.63;;
25982;SDS011;13773;48.868;10.730;2023-03-01T07:32:56;30.13;;;18.07;;
25982;SDS011;13773;48.868;10.730;2023-03-01T07:35:23;26.43;;;17.10;;
25982;SDS011;13773;48.868;10.730;2023-03-01T07:37:51;26.37;;;17.40;;
25982;SDS011;13773;48.868;10.730;2023-03-01T07:40:17;29.67;;;19.10;;
25982;SDS011;13773;48.868;10.730;2023-03-01T07:42:43;30.73;;;20.67;;
25982;SDS011;13773;48.868;10.730;2023-03-01T07:45:09;30.13;;;18.77;;
25982;SDS011;13773;48.868;10.730;2023-03-01T07:47:35;32.13;;;18.13;;
25982;SDS011;13773;48.868;10.730;2023-03-01T07:50:01;29.43;;;18.47;;
25982;SDS011;13773;48.868;10.730;2023-03-01T07:52:27;30.00;;;19.60;;
25982;SDS011;13773;48.868;10.730;2023-03-01T07:54:53;28.30;;;18.17;;
25982;SDS011;13773;48.868;10.730;2023-03-01T07:57:19;28.03;;;17.57;;
25982;SDS011;13773;48.868;10.730;2023-03-01T07:59:45;29.47;;;18.47;;
25982;SDS011;13773;48.868;10.730;2023-03-01T08:02:10;29.17;;;18.90;;
25982;SDS011;13773;48.868;10.730;2023-03-01T08:04:36;27.37;;;17.60;;
25982;SDS011;13773;48.868;10.730;2023-03-01T08:07:04;28.40;;;17.07;;
25982;SDS011;13773;48.868;10.730;2023-03-01T08:09:30;27.63;;;17.90;;
25982;SDS011;13773;48.868;10.730;2023-03-01T08:11:56;27.23;;;17.07;;
25982;SDS011;13773;48.868;10.730;2023-03-01T08:14:24;30.27;;;18.33;;
25982;SDS011;13773;48.868;10.730;2023-03-01T08:16:50;27.10;;;17.40;;
25982;SDS011;13773;48.868;10.730;2023-03-01T08:19:16;28.53;;;17.87;;
25982;SDS011;13773;48.868;10.730;2023-03-01T08:21:42;28.30;;;17.90;;
25982;SDS011;13773;48.868;10.730;2023-03-01T08:24:08;28.90;;;17.17;;
25982;SDS011;13773;48.868;10.730;2023-03-01T08:26:35;27.23;;;18.37;;
25982;SDS011;13773;48.868;10.730;2023-03-01T08:29:02;28.57;;;17.43;;
25982;SDS011;13773;48.868;10.730;2023-03-01T08:31:32;28.50;;;18.13;;
25982;SDS011;13773;48.868;10.730;2023-03-01T08:34:03;28.20;;;17.57;;
25982;SDS011;13773;48.868;10.730;2023-03-01T08:36:35;28.20;;;18.07;;
25982;SDS011;13773;48.868;10.730;2023-03-01T08:39:02;26.03;;;16.27;;
25982;SDS011;13773;48.868;10.730;2023-03-01T08:41:28;24.57;;;16.63;;
25982;SDS011;13773;48.868;10.730;2023-03-01T08:43:54;25.10;;;16.23;;
25982;SDS011;13773;48.868;10.730;2023-03-01T08:46:24;23.00;;;17.17;;
25982;SDS011;13773;48.868;10.730;2023-03-01T08:49:03;24.97;;;17.00;;
25982;SDS011;13773;48.868;10.730;2023-03-01T08:51:30;25.30;;;17.30;;
25982;SDS011;13773;48.868;10.730;2023-03-01T08:54:01;25.90;;;17.47;;
25982;SDS011;13773;48.868;10.730;2023-03-01T08:56:37;25.70;;;15.83;;
25982;SDS011;13773;48.868;10.730;2023-03-01T08:59:03;26.57;;;18.00;;
25982;SDS011;13773;48.868;10.730;2023-03-01T09:01:29;24.37;;;16.67;;
25982;SDS011;13773;48.868;10.730;2023-03-01T09:03:55;24.07;;;16.53;;
25982;SDS011;13773;48.868;10.730;2023-03-01T09:06:20;26.90;;;17.00;;
25982;SDS011;13773;48.868;10.730;2023-03-01T09:08:47;24.17;;;16.83;;
25982;SDS011;13773;48.868;10.730;2023-03-01T09:11:16;23.27;;;16.13;;
25982;SDS011;13773;48.868;10.730;2023-03-01T09:13:44;24.93;;;17.97;;
25982;SDS011;13773;48.868;10.730;2023-03-01T09:16:11;22.90;;;16.80;;
25982;SDS011;13773;48.868;10.730;2023-03-01T09:18:38;24.90;;;18.27;;
25982;SDS011;13773;48.868;10.730;2023-03-01T09:21:08;27.33;;;17.13;;
25982;SDS011;13773;48.868;10.730;2023-03-01T09:23:37;38.77;;;25.17;;
25982;SDS011;13773;48.868;10.730;2023-03-01T09:26:11;29.63;;;16.70;;
25982;SDS011;13773;48.868;10.730;2023-03-01T09:28:39;22.10;;;15.60;;
25982;SDS011;13773;48.868;10.730;2023-03-01T09:31:09;19.77;;;14.23;;
25982;SDS011;13773;48.868;10.730;2023-03-01T09:33:37;20.13;;;14.53;;
25982;SDS011;13773;48.868;10.730;2023-03-01T09:36:04;50.67;;;27.87;;
25982;SDS011;13773;48.868;10.730;2023-03-01T09:38:32;18.93;;;13.63;;
25982;SDS011;13773;48.868;10.730;2023-03-01T09:40:58;21.63;;;14.17;;
25982;SDS011;13773;48.868;10.730;2023-03-01T09:46:06;15.03;;;12.20;;
25982;SDS011;13773;48.868;10.730;2023-03-01T09:48:41;19.57;;;12.97;;
25982;SDS011;13773;48.868;10.730;2023-03-01T09:51:16;16.53;;;11.10;;
25982;SDS011;13773;48.868;10.730;2023-03-01T09:53:44;19.07;;;13.70;;
25982;SDS011;13773;48.868;10.730;2023-03-01T09:56:20;18.33;;;11.70;;
25982;SDS011;13773;48.868;10.730;2023-03-01T10:04:44;21.80;;;15.33;;
25982;SDS011;13773;48.868;10.730;2023-03-01T10:09:49;20.03;;;12.83;;
25982;SDS011;13773;48.868;10.730;2023-03-01T10:12:20;17.00;;;10.87;;
25982;SDS011;13773;48.868;10.730;2023-03-01T10:20:22;17.83;;;12.33;;
25982;SDS011;13773;48.868;10.730;2023-03-01T10:22:52;16.03;;;12.07;;
25982;SDS011;13773;48.868;10.730;2023-03-01T10:26:07;23.47;;;14.17;;
25982;SDS011;13773;48.868;10.730;2023-03-01T10:31:01;17.40;;;11.57;;
25982;SDS011;13773;48.868;10.730;2023-03-01T10:33:27;15.80;;;10.33;;
25982;SDS011;13773;48.868;10.730;2023-03-01T10:35:56;16.30;;;12.17;;
25982;SDS011;13773;48.868;10.730;2023-03-01T10:38:22;17.60;;;12.27;;
25982;SDS011;13773;48.868;10.730;2023-03-01T10:40:57;19.67;;;13.33;;
25982;SDS011;13773;48.868;10.730;2023-03-01T10:43:43;18.10;;;11.43;;
25982;SDS011;13773;48.868;10.730;2023-03-01T10:46:31;14.53;;;10.37;;
25982;SDS011;13773;48.868;10.730;2023-03-01T10:51:48;17.60;;;11.67;;
25982;SDS011;13773;48.868;10.730;2023-03-01T10:54:16;14.27;;;11.03;;
25982;SDS011;13773;48.868;10.730;2023-03-01T10:56:49;15.33;;;11.47;;
25982;SDS011;13773;48.868;10.730;2023-03-01T10:59:33;17.53;;;11.97;;
25982;SDS011;13773;48.868;10.730;2023-03-01T11:02:17;14.67;;;11.30;;
25982;SDS011;13773;48.868;10.730;2023-03-01T11:04:58;17.00;;;12.33;;
25982;SDS011;13773;48.868;10.730;2023-03-01T11:07:26;35.60;;;24.43;;
25982;SDS011;13773;48.868;10.730;2023-03-01T11:09:52;28.83;;;20.10;;
25982;SDS011;13773;48.868;10.730;2023-03-01T11:12:18;61.90;;;38.73;;
25982;SDS011;13773;48.868;10.730;2023-03-01T11:14:49;47.33;;;30.63;;
25982;SDS011;13773;48.868;10.730;2023-03-01T11:22:43;66.33;;;36.23;;
25982;SDS011;13773;48.868;10.730;2023-03-01T11:25:16;17.20;;;13.33;;
25982;SDS011;13773;48.868;10.730;2023-03-01T11:27:44;16.67;;;13.07;;
25982;SDS011;13773;48.868;10.730;2023-03-01T11:33:30;17.87;;;11.67;;
25982;SDS011;13773;48.868;10.730;2023-03-01T11:36:05;17.50;;;11.40;;
25982;SDS011;13773;48.868;10.730;2023-03-01T11:38:34;20.33;;;15.40;;
25982;SDS011;13773;48.868;10.730;2023-03-01T11:41:04;16.47;;;11.80;;
25982;SDS011;13773;48.868;10.730;2023-03-01T11:46:47;15.00;;;11.37;;
25982;SDS011;13773;48.868;10.730;2023-03-01T11:52:33;23.07;;;17.03;;
25982;SDS011;13773;48.868;10.730;2023-03-01T12:14:45;14.83;;;11.17;;
25982;SDS011;13773;48.868;10.730;2023-03-01T12:26:20;16.67;;;12.47;;
25982;SDS011;13773;48.868;10.730;2023-03-01T12:43:56;16.13;;;10.97;;
25982;SDS011;13773;48.868;10.730;2023-03-01T12:49:08;16.20;;;11.20;;
25982;SDS011;13773;48.868;10.730;2023-03-01T12:51:42;14.93;;;11.53;;
25982;SDS011;13773;48.868;10.730;2023-03-01T12:54:15;17.60;;;12.17;;
25982;SDS011;13773;48.868;10.730;2023-03-01T12:56:44;17.13;;;11.60;;
25982;SDS011;13773;48.868;10.730;2023-03-01T13:01:48;17.97;;;11.97;;
25982;SDS011;13773;48.868;10.730;2023-03-01T13:17:53;16.47;;;11.43;;
25982;SDS011;13773;48.868;10.730;2023-03-01T13:20:23;16.43;;;12.20;;
25982;SDS011;13773;48.868;10.730;2023-03-01T13:23:11;16.17;;;11.03;;
25982;SDS011;13773;48.868;10.730;2023-03-01T13:47:04;15.53;;;10.63;;
25982;SDS011;13773;48.868;10.730;2023-03-01T13:49:56;16.43;;;11.40;;
25982;SDS011;13773;48.868;10.730;2023-03-01T13:52:35;11.93;;;9.37;;
25982;SDS011;13773;48.868;10.730;2023-03-01T13:57:49;15.23;;;10.67;;
25982;SDS011;13773;48.868;10.730;2023-03-01T14:02:59;15.17;;;11.00;;
25982;SDS011;13773;48.868;10.730;2023-03-01T14:05:27;14.10;;;10.17;;
25982;SDS011;13773;48.868;10.730;2023-03-01T14:07:53;15.03;;;10.20;;
25982;SDS011;13773;48.868;10.730;2023-03-01T14:10:19;14.33;;;10.30;;
25982;SDS011;13773;48.868;10.730;2023-03-01T14:12:49;14.60;;;10.17;;
25982;SDS011;13773;48.868;10.730;2023-03-01T14:15:30;18.83;;;10.17;;
25982;SDS011;13773;48.868;10.730;2023-03-01T14:18:21;12.70;;;9.80;;
25982;SDS011;13773;48.868;10.730;2023-03-01T14:20:49;13.30;;;10.10;;
25982;SDS011;13773;48.868;10.730;2023-03-01T14:23:20;12.50;;;9.73;;
25982;SDS011;13773;48.868;10.730;2023-03-01T14:25:48;13.80;;;9.80;;
25982;SDS011;13773;48.868;10.730;2023-03-01T14:28:29;12.97;;;9.70;;
25982;SDS011;13773;48.868;10.730;2023-03-01T14:30:58;13.20;;;10.33;;
25982;SDS011;13773;48.868;10.730;2023-03-01T14:33:29;15.67;;;10.13;;
25982;SDS011;13773;48.868;10.730;2023-03-01T14:36:13;13.90;;;9.97;;
25982;SDS011;13773;48.868;10.730;2023-03-01T14:38:40;13.97;;;9.57;;
25982;SDS011;13773;48.868;10.730;2023-03-01T14:41:17;15.60;;;10.57;;
25982;SDS011;13773;48.868;10.730;2023-03-01T14:43:52;15.53;;;10.20;;
25982;SDS011;13773;48.868;10.730;2023-03-01T14:46:43;13.23;;;9.90;;
25982;SDS011;13773;48.868;10.730;2023-03-01T14:49:14;11.10;;;8.87;;
25982;SDS011;13773;48.868;10.730;2023-03-01T14:52:00;10.30;;;8.77;;
25982;SDS011;13773;48.868;10.730;2023-03-01T14:57:12;14.00;;;9.83;;
25982;SDS011;13773;48.868;10.730;2023-03-01T14:59:40;14.17;;;10.10;;
25982;SDS011;13773;48.868;10.730;2023-03-01T15:02:13;13.63;;;11.03;;
25982;SDS011;13773;48.868;10.730;2023-03-01T15:04:43;16.47;;;10.50;;
25982;SDS011;13773;48.868;10.730;2023-03-01T15:07:12;14.83;;;11.07;;
25982;SDS011;13773;48.868;10.730;2023-03-01T15:09:39;15.23;;;10.90;;
25982;SDS011;13773;48.868;10.730;2023-03-01T15:14:53;14.33;;;10.80;;
25982;SDS011;13773;48.868;10.730;2023-03-01T15:17:28;16.33;;;11.23;;
25982;SDS011;13773;48.868;10.730;2023-03-01T15:20:13;14.63;;;11.03;;
25982;SDS011;13773;48.868;10.730;2023-03-01T15:22:46;13.43;;;11.00;;
25982;SDS011;13773;48.868;10.730;2023-03-01T15:25:15;18.43;;;11.67;;
25982;SDS011;13773;48.868;10.730;2023-03-01T15:27:46;15.30;;;11.37;;
25982;SDS011;13773;48.868;10.730;2023-03-01T15:30:15;14.60;;;10.30;;
25982;SDS011;13773;48.868;10.730;2023-03-01T15:32:47;16.87;;;11.10;;
25982;SDS011;13773;48.868;10.730;2023-03-01T15:38:27;16.27;;;10.67;;
25982;SDS011;13773;48.868;10.730;2023-03-01T15:40:53;16.00;;;11.03;;
25982;SDS011;13773;48.868;10.730;2023-03-01T15:46:19;17.53;;;11.60;;
25982;SDS011;13773;48.868;10.730;2023-03-01T15:48:48;13.53;;;10.30;;
25982;SDS011;13773;48.868;10.730;2023-03-01T15:51:17;15.93;;;10.40;;
25982;SDS011;13773;48.868;10.730;2023-03-01T15:53:49;14.97;;;11.17;;
25982;SDS011;13773;48.868;10.730;2023-03-01T15:56:17;15.43;;;10.60;;
25982;SDS011;13773;48.868;10.730;2023-03-01T15:58:43;13.33;;;10.03;;
25982;SDS011;13773;48.868;10.730;2023-03-01T16:01:15;16.40;;;11.73;;
25982;SDS011;13773;48.868;10.730;2023-03-01T16:03:43;14.93;;;10.70;;
25982;SDS011;13773;48.868;10.730;2023-03-01T16:06:10;18.63;;;12.03;;
25982;SDS011;13773;48.868;10.730;2023-03-01T16:08:39;14.73;;;11.13;;
25982;SDS011;13773;48.868;10.730;2023-03-01T16:11:09;16.27;;;12.30;;
25982;SDS011;13773;48.868;10.730;2023-03-01T16:13:39;17.87;;;11.67;;
25982;SDS011;13773;48.868;10.730;2023-03-01T16:16:05;16.10;;;12.20;;
25982;SDS011;13773;48.868;10.730;2023-03-01T16:18:32;17.47;;;11.90;;
25982;SDS011;13773;48.868;10.730;2023-03-01T16:20:58;17.30;;;11.40;;
25982;SDS011;13773;48.868;10.730;2023-03-01T16:23:24;17.67;;;12.50;;
25982;SDS011;13773;48.868;10.730;2023-03-01T16:25:50;17.40;;;13.10;;
25982;SDS011;13773;48.868;10.730;2023-03-01T16:28:16;16.73;;;12.67;;
25982;SDS011;13773;48.868;10.730;2023-03-01T16:30:45;16.57;;;12.77;;
25982;SDS011;13773;48.868;10.730;2023-03-01T16:33:13;18.60;;;11.77;;
25982;SDS011;13773;48.868;10.730;2023-03-01T16:35:39;17.77;;;13.07;;
25982;SDS011;13773;48.868;10.730;2023-03-01T16:38:05;18.30;;;13.40;;
25982;SDS011;13773;48.868;10.730;2023-03-01T16:40:31;19.40;;;13.07;;
25982;SDS011;13773;48.868;10.730;2023-03-01T16:42:57;18.37;;;12.63;;
25982;SDS011;13773;48.868;10.730;2023-03-01T16:45:26;21.70;;;12.53;;
25982;SDS011;13773;48.868;10.730;2023-03-01T16:47:53;17.90;;;13.43;;
25982;SDS011;13773;48.868;10.730;2023-03-01T16:50:19;19.37;;;14.37;;